createdAt,value
2023-01-19T00:12:48.054Z,1057.00
2023-01-19T00:14:47.875Z,1054.00
2023-01-19T00:15:47.799Z,1059.00
2023-01-19T00:16:47.710Z,1061.00
2023-01-19T00:17:47.619Z,1059.00
2023-01-19T00:18:47.539Z,1059.00
2023-01-19T00:19:47.449Z,1059.00
2023-01-19T00:20:47.366Z,1060.00
2023-01-19T00:21:47.289Z,1058.00
2023-01-19T00:22:47.193Z,1056.00
2023-01-19T00:24:46.982Z,1058.00
2023-01-19T00:25:46.892Z,1055.00
2023-01-19T00:26:46.809Z,1059.00
2023-01-19T00:27:46.732Z,1056.00
2023-01-19T00:29:46.543Z,1060.00
2023-01-19T00:30:46.514Z,1061.00
2023-01-19T00:31:46.428Z,1062.00
2023-01-19T00:32:46.324Z,1056.00
2023-01-19T00:33:46.190Z,1059.00
2023-01-19T00:34:46.075Z,1060.00
2023-01-19T00:35:45.998Z,1062.00
2023-01-19T00:36:45.904Z,1059.00
2023-01-19T00:37:45.834Z,1056.00
2023-01-19T00:38:45.763Z,1053.00
2023-01-19T00:39:45.647Z,1057.00
2023-01-19T00:40:45.529Z,1062.00
2023-01-19T01:40:39.658Z,1041.00
2023-01-19T01:41:39.547Z,1037.00
2023-01-19T01:42:39.483Z,1038.00
2023-01-19T01:43:39.361Z,1038.00
2023-01-19T01:44:39.280Z,1041.00
2023-01-19T01:45:39.209Z,1044.00
2023-01-19T01:46:39.100Z,1042.00
2023-01-19T01:47:39.014Z,1041.00
2023-01-19T01:48:39.781Z,1042.00
2023-01-19T01:49:38.828Z,1043.00
2023-01-19T01:50:39.273Z,1047.00
2023-01-19T01:51:38.580Z,1049.00
2023-01-19T01:52:38.462Z,1047.00
2023-01-19T01:53:38.340Z,1042.00
2023-01-19T01:54:38.218Z,1041.00
2023-01-19T01:55:38.125Z,1040.00
2023-01-19T01:56:38.042Z,1042.00
2023-01-19T01:57:37.955Z,1038.00
2023-01-19T01:58:37.864Z,1035.00
2023-01-19T01:59:37.773Z,1032.00
2023-01-19T02:00:37.680Z,1037.00
2023-01-19T02:01:37.704Z,1041.00
2023-01-19T02:02:37.491Z,1040.00
2023-01-19T02:03:37.480Z,1038.00
2023-01-19T02:04:37.302Z,1040.00
2023-01-19T02:05:37.198Z,1043.00
2023-01-19T02:06:37.124Z,1039.00
2023-01-19T02:07:37.036Z,1040.00
2023-01-19T02:08:36.949Z,1038.00
2023-01-19T02:09:36.850Z,1037.00
2023-01-19T02:10:36.761Z,1038.00
2023-01-19T02:11:36.664Z,1037.00
2023-01-19T02:12:36.583Z,1046.00
2023-01-19T02:13:36.490Z,1043.00
2023-01-19T02:14:36.407Z,1045.00
2023-01-19T02:15:36.314Z,1044.00
2023-01-19T02:16:36.268Z,1039.00
2023-01-19T02:17:36.223Z,1038.00
2023-01-19T02:18:36.063Z,1041.00
2023-01-19T02:19:35.986Z,1041.00
2023-01-19T02:20:35.909Z,1047.00
2023-01-19T02:21:35.802Z,1049.00
2023-01-19T02:22:35.702Z,1045.00
2023-01-19T02:23:35.644Z,1043.00
2023-01-19T03:17:29.426Z,1022.00
2023-01-19T03:19:29.169Z,1019.00
2023-01-19T03:21:28.890Z,1017.00
2023-01-19T03:22:28.739Z,1016.00
2023-01-19T03:23:28.618Z,1018.00
2023-01-19T03:24:28.482Z,1019.00
2023-01-19T03:25:28.345Z,1011.00
2023-01-19T03:26:28.203Z,1012.00
2023-01-19T03:27:28.058Z,1016.00
2023-01-19T03:28:27.916Z,1012.00
2023-01-19T03:29:27.776Z,1015.00
2023-01-19T03:30:27.639Z,1013.00
2023-01-19T03:31:27.501Z,1009.00
2023-01-19T03:32:27.352Z,1013.00
2023-01-19T03:33:27.307Z,1018.00
2023-01-19T03:34:27.097Z,1016.00
2023-01-19T03:35:26.943Z,1015.00
2023-01-19T03:36:26.795Z,1017.00
2023-01-19T03:37:26.651Z,1019.00
2023-01-19T03:38:26.518Z,1015.00
2023-01-19T03:40:26.227Z,1016.00
2023-01-19T03:41:26.103Z,1014.00
2023-01-19T03:42:25.957Z,1014.00
2023-01-19T03:43:25.816Z,1011.00
2023-01-19T03:44:25.673Z,1013.00
2023-01-19T03:45:25.529Z,1014.00
2023-01-19T04:35:18.776Z,1019.00
2023-01-19T04:36:18.648Z,1017.00
2023-01-19T04:37:18.520Z,1018.00
2023-01-19T04:38:18.374Z,1017.00
2023-01-19T04:40:18.119Z,1013.00
2023-01-19T04:41:17.991Z,1015.00
2023-01-19T04:42:17.860Z,1013.00
2023-01-19T04:43:17.726Z,1008.00
2023-01-19T04:44:17.578Z,1008.00
2023-01-19T04:45:17.486Z,1011.00
2023-01-19T04:46:17.362Z,1008.00
2023-01-19T04:47:17.186Z,1010.00
2023-01-19T04:48:17.057Z,1013.00
2023-01-19T04:49:16.917Z,1016.00
2023-01-19T04:50:16.786Z,1017.00
2023-01-19T04:51:16.649Z,1019.00
2023-01-19T04:52:16.513Z,1016.00
2023-01-19T04:53:16.396Z,1012.00
2023-01-19T04:54:16.314Z,1014.00
2023-01-19T04:55:16.134Z,1014.00
2023-01-19T04:56:15.997Z,1013.00
2023-01-19T04:57:15.864Z,1015.00
2023-01-19T04:58:15.736Z,1015.00
2023-01-19T04:59:15.653Z,1012.00
2023-01-19T05:54:08.265Z,995.00
2023-01-19T05:55:08.152Z,997.00
2023-01-19T05:56:07.994Z,1001.00
2023-01-19T05:57:07.865Z,1002.00
2023-01-19T05:58:07.713Z,1002.00
2023-01-19T05:59:07.589Z,998.00
2023-01-19T06:00:07.451Z,997.00
2023-01-19T06:01:07.354Z,995.00
2023-01-19T06:02:07.338Z,995.00
2023-01-19T06:03:07.093Z,994.00
2023-01-19T06:04:06.907Z,997.00
2023-01-19T06:05:06.773Z,997.00
2023-01-19T06:06:06.637Z,990.00
2023-01-19T06:07:06.510Z,988.00
2023-01-19T06:08:06.367Z,989.00
2023-01-19T06:09:06.219Z,983.00
2023-01-19T06:10:06.085Z,982.00
2023-01-19T06:11:06.838Z,984.00
2023-01-19T06:12:05.806Z,988.00
2023-01-19T06:13:05.659Z,991.00
2023-01-19T06:14:05.528Z,989.00
2023-01-19T06:27:57.854Z,1981.00
2023-01-19T06:28:57.738Z,2548.00
2023-01-19T06:29:57.750Z,1379.00
2023-01-19T06:30:57.801Z,1477.00
2023-01-19T06:31:57.810Z,1891.00
2023-01-19T06:32:57.892Z,1460.00
2023-01-19T06:34:57.021Z,2785.00
2023-01-19T06:35:57.012Z,1531.00
2023-01-19T06:36:57.611Z,1501.00
2023-01-19T06:37:58.710Z,1550.00
2023-01-19T06:38:57.026Z,1580.00
2023-01-19T06:39:56.989Z,1599.00
2023-01-19T06:40:56.986Z,1621.00
2023-01-19T06:41:56.998Z,1648.00
2023-01-19T06:42:56.991Z,1685.00
2023-01-19T06:43:57.002Z,1712.00
2023-01-19T06:44:57.698Z,1726.00
2023-01-19T06:45:57.000Z,1771.00
2023-01-19T06:47:14.979Z,1793.00
2023-01-19T06:47:57.961Z,1807.00
2023-01-19T06:48:56.985Z,1849.00
2023-01-19T06:49:56.961Z,1889.00
2023-01-19T06:50:58.715Z,1924.00
2023-01-19T06:51:56.931Z,1950.00
2023-01-19T06:52:56.933Z,2001.00
2023-01-19T06:53:56.911Z,2023.00
2023-01-19T06:54:56.927Z,2042.00
2023-01-19T06:55:57.701Z,2073.00
2023-01-19T06:56:56.885Z,2092.00
2023-01-19T06:57:56.881Z,2101.00
2023-01-19T06:58:56.870Z,2126.00
2023-01-19T06:59:56.866Z,2166.00
2023-01-19T07:00:56.921Z,2211.00
2023-01-19T07:01:57.058Z,2219.00
2023-01-19T07:02:56.817Z,2237.00
2023-01-19T07:03:56.797Z,2278.00
2023-01-19T07:04:56.855Z,2327.00
2023-01-19T07:05:56.764Z,2375.00
2023-01-19T07:06:56.747Z,2405.00
2023-01-19T07:07:56.995Z,2410.00
2023-01-19T07:08:56.729Z,2416.00
2023-01-19T07:09:56.704Z,2488.00
2023-01-19T07:11:25.749Z,2502.00
2023-01-19T07:11:57.689Z,2522.00
2023-01-19T07:12:57.199Z,2555.00
2023-01-19T07:13:56.653Z,2561.00
2023-01-19T07:14:56.640Z,2608.00
2023-01-19T07:15:56.689Z,2658.00
2023-01-19T07:16:56.688Z,2663.00
2023-01-19T07:17:56.607Z,2691.00
2023-01-19T07:18:56.596Z,2734.00
2023-01-19T07:19:56.580Z,2757.00
2023-01-19T07:21:56.548Z,2999.00
2023-01-19T07:22:56.554Z,3052.00
2023-01-19T07:23:56.520Z,2898.00
2023-01-19T07:24:58.234Z,2901.00
2023-01-19T07:25:56.536Z,2968.00
2023-01-19T07:26:59.217Z,3041.00
2023-01-19T07:27:57.207Z,3028.00
2023-01-19T07:28:57.170Z,3078.00
2023-01-19T07:29:56.539Z,3170.00
2023-01-19T07:30:56.655Z,3144.00
2023-01-19T07:31:56.498Z,3150.00
2023-01-19T07:32:56.478Z,3183.00
2023-01-19T07:33:56.450Z,3204.00
2023-01-19T07:34:56.445Z,3220.00
2023-01-19T07:35:58.229Z,3235.00
2023-01-19T07:36:56.410Z,3270.00
2023-01-19T07:37:57.386Z,3351.00
2023-01-19T07:38:56.360Z,3378.00
2023-01-19T07:39:56.355Z,3452.00
2023-01-19T07:40:56.334Z,3447.00
2023-01-19T07:41:56.316Z,3460.00
2023-01-19T07:42:56.327Z,3519.00
2023-01-19T07:43:56.288Z,3542.00
2023-01-19T07:44:57.214Z,3550.00
2023-01-19T07:45:56.272Z,3561.00
2023-01-19T07:46:56.237Z,3577.00
2023-01-19T07:47:56.276Z,3626.00
2023-01-19T07:48:56.212Z,3648.00
2023-01-19T07:49:57.745Z,3654.00
2023-01-19T07:50:56.188Z,3676.00
2023-01-19T07:51:56.172Z,3717.00
2023-01-19T07:52:56.726Z,3744.00
2023-01-19T07:53:56.237Z,3823.00
2023-01-19T07:54:56.277Z,3824.00
2023-01-19T07:55:56.289Z,3836.00
2023-01-19T07:56:56.548Z,3867.00
2023-01-19T07:57:57.307Z,3892.00
2023-01-19T07:58:56.251Z,3913.00
2023-01-19T07:59:56.249Z,3949.00
2023-01-19T08:00:56.323Z,3970.00
2023-01-19T08:01:58.102Z,3999.00
2023-01-19T08:02:56.160Z,4046.00
2023-01-19T08:03:56.148Z,4071.00
2023-01-19T08:04:56.233Z,4093.00
2023-01-19T08:05:56.163Z,4129.00
2023-01-19T08:06:56.206Z,4167.00
2023-01-19T08:07:56.238Z,4186.00
2023-01-19T08:08:56.248Z,4193.00
2023-01-19T08:09:56.244Z,4233.00
2023-01-19T08:10:56.290Z,4271.00
2023-01-19T08:11:56.287Z,4296.00
2023-01-19T08:12:56.327Z,4317.00
2023-01-19T08:13:56.301Z,4333.00
2023-01-19T08:14:56.307Z,4358.00
2023-01-19T08:15:56.818Z,4382.00
2023-01-19T08:16:56.318Z,4410.00
2023-01-19T08:17:56.327Z,4466.00
2023-01-19T08:18:56.383Z,4476.00
2023-01-19T08:19:56.337Z,4466.00
2023-01-19T08:20:56.366Z,4443.00
2023-01-19T08:21:56.360Z,4390.00
2023-01-19T08:22:57.339Z,4369.00
2023-01-19T08:23:56.426Z,4315.00
2023-01-19T08:24:56.306Z,4312.00
2023-01-19T08:25:56.290Z,4314.00
2023-01-19T08:26:56.271Z,4307.00
2023-01-19T08:27:56.248Z,4299.00
2023-01-19T08:28:56.230Z,4302.00
2023-01-19T08:29:56.218Z,4300.00
2023-01-19T08:30:56.350Z,4281.00
2023-01-19T08:31:56.291Z,4265.00
2023-01-19T08:32:56.219Z,4251.00
2023-01-19T08:33:56.216Z,4256.00
2023-01-19T08:34:56.205Z,4251.00
2023-01-19T08:35:56.225Z,4248.00
2023-01-19T08:36:56.217Z,4245.00
2023-01-19T08:37:56.232Z,4221.00
2023-01-19T08:38:56.216Z,4222.00
2023-01-19T08:39:56.210Z,4223.00
2023-01-19T08:40:56.208Z,4219.00
2023-01-19T08:41:56.207Z,4215.00
2023-01-19T08:42:56.220Z,4216.00
2023-01-19T08:43:56.211Z,4214.00
2023-01-19T08:44:58.495Z,4209.00
2023-01-19T08:45:56.399Z,4203.00
2023-01-19T08:46:56.288Z,4194.00
2023-01-19T08:47:56.285Z,4196.00
2023-01-19T08:48:56.282Z,4197.00
2023-01-19T08:49:56.301Z,4198.00
2023-01-19T08:50:56.319Z,4199.00
2023-01-19T08:51:56.307Z,4200.00
2023-01-19T08:52:56.326Z,4200.00
2023-01-19T08:53:56.368Z,4197.00
2023-01-19T08:54:56.356Z,4201.00
2023-01-19T08:55:56.367Z,4195.00
2023-01-19T08:56:56.383Z,4189.00
2023-01-19T08:57:56.394Z,4192.00
2023-01-19T08:59:08.146Z,4187.00
2023-01-19T08:59:57.408Z,4159.00
2023-01-19T09:00:56.428Z,4165.00
2023-01-19T09:01:56.581Z,4154.00
2023-01-19T09:02:56.451Z,4146.00
2023-01-19T09:03:56.367Z,4143.00
2023-01-19T09:04:56.348Z,4143.00
2023-01-19T09:05:56.338Z,4148.00
2023-01-19T09:06:56.337Z,4153.00
2023-01-19T09:07:56.335Z,4160.00
2023-01-19T09:08:56.312Z,4156.00
2023-01-19T09:09:56.318Z,4154.00
2023-01-19T09:10:56.298Z,4146.00
2023-01-19T09:11:56.311Z,4142.00
2023-01-19T09:12:56.291Z,4138.00
2023-01-19T09:13:56.307Z,4000.00
2023-01-19T09:14:56.343Z,4001.00
2023-01-19T09:15:56.325Z,4013.00
2023-01-19T09:16:56.297Z,4010.00
2023-01-19T09:17:56.275Z,4014.00
2023-01-19T09:18:56.306Z,3997.00
2023-01-19T09:19:56.271Z,4002.00
2023-01-19T09:20:56.262Z,4045.00
2023-01-19T09:21:56.289Z,4048.00
2023-01-19T09:22:56.289Z,4069.00
2023-01-19T09:23:56.275Z,4068.00
2023-01-19T09:24:56.277Z,4081.00
2023-01-19T09:25:56.277Z,4084.00
2023-01-19T09:26:56.293Z,4068.00
2023-01-19T09:27:56.280Z,4046.00
2023-01-19T09:28:56.283Z,4039.00
2023-01-19T09:29:56.316Z,4031.00
2023-01-19T09:30:56.377Z,4021.00
2023-01-19T09:31:56.474Z,4009.00
2023-01-19T09:33:56.308Z,4007.00
2023-01-19T09:34:58.174Z,4011.00
2023-01-19T09:35:56.300Z,4017.00
2023-01-19T09:36:56.312Z,4010.00
2023-01-19T09:37:57.203Z,4013.00
2023-01-19T09:38:57.251Z,4015.00
2023-01-19T09:39:56.405Z,4007.00
2023-01-19T09:40:57.249Z,4003.00
2023-01-19T09:41:56.289Z,3996.00
2023-01-19T09:42:56.277Z,3996.00
2023-01-19T09:43:56.266Z,3987.00
2023-01-19T09:44:56.263Z,3982.00
2023-01-19T09:45:56.255Z,3977.00
2023-01-19T09:46:57.771Z,3971.00
2023-01-19T09:47:56.249Z,3958.00
2023-01-19T09:48:56.229Z,3961.00
2023-01-19T09:49:56.251Z,3960.00
2023-01-19T09:50:56.224Z,3955.00
2023-01-19T09:51:56.232Z,3951.00
2023-01-19T09:52:56.252Z,3947.00
2023-01-19T09:53:56.233Z,3940.00
2023-01-19T09:54:56.193Z,3943.00
2023-01-19T09:55:56.191Z,3942.00
2023-01-19T09:56:56.228Z,3942.00
2023-01-19T09:57:56.195Z,3933.00
2023-01-19T09:58:56.229Z,3918.00
2023-01-19T09:59:57.172Z,3908.00
2023-01-19T10:00:56.323Z,3907.00
2023-01-19T10:01:56.363Z,3898.00
2023-01-19T10:02:56.350Z,3890.00
2023-01-19T10:03:56.315Z,3908.00
2023-01-19T10:04:56.339Z,3897.00
2023-01-19T10:05:56.368Z,3891.00
2023-01-19T10:06:56.379Z,3886.00
2023-01-19T10:07:56.425Z,3879.00
2023-01-19T10:08:57.174Z,3873.00
2023-01-19T10:09:56.473Z,3860.00
2023-01-19T10:10:56.497Z,3852.00
2023-01-19T10:11:56.553Z,3858.00
2023-01-19T10:12:56.541Z,3844.00
2023-01-19T10:13:56.571Z,3836.00
2023-01-19T10:14:56.636Z,3831.00
2023-01-19T10:15:56.801Z,3832.00
2023-01-19T10:16:56.653Z,3826.00
2023-01-19T10:17:56.717Z,3815.00
2023-01-19T10:18:56.703Z,3816.00
2023-01-19T10:19:56.729Z,3823.00
2023-01-19T10:20:56.752Z,3815.00
2023-01-19T10:21:56.776Z,3818.00
2023-01-19T10:22:56.796Z,3816.00
2023-01-19T10:23:56.851Z,3803.00
2023-01-19T10:24:56.835Z,3802.00
2023-01-19T10:25:57.848Z,3794.00
2023-01-19T10:26:56.899Z,3792.00
2023-01-19T10:27:56.955Z,3784.00
2023-01-19T10:28:56.975Z,3782.00
2023-01-19T10:29:57.039Z,3778.00
2023-01-19T10:30:57.079Z,3773.00
2023-01-19T10:31:57.071Z,3769.00
2023-01-19T10:32:57.074Z,3765.00
2023-01-19T10:33:57.102Z,3757.00
2023-01-19T10:34:57.144Z,3759.00
2023-01-19T10:35:57.215Z,3752.00
2023-01-19T10:36:57.192Z,3752.00
2023-01-19T10:37:57.286Z,3748.00
2023-01-19T10:38:57.302Z,3741.00
2023-01-19T10:39:57.296Z,3725.00
2023-01-19T10:40:57.363Z,3716.00
2023-01-19T10:41:57.369Z,3716.00
2023-01-19T10:42:57.442Z,3720.00
2023-01-19T10:43:57.579Z,3715.00
2023-01-19T10:44:57.450Z,3714.00
2023-01-19T10:45:57.605Z,3705.00
2023-01-19T10:46:57.515Z,3707.00
2023-01-19T10:47:57.552Z,3703.00
2023-01-19T10:48:57.575Z,3708.00
2023-01-19T10:49:58.271Z,3701.00
2023-01-19T10:50:57.700Z,3700.00
2023-01-19T10:51:57.685Z,3698.00
2023-01-19T10:52:57.713Z,3700.00
2023-01-19T10:53:57.761Z,3707.00
2023-01-19T10:54:57.761Z,3707.00
2023-01-19T10:55:57.781Z,3690.00
2023-01-19T10:56:57.851Z,3687.00
2023-01-19T10:57:57.855Z,3681.00
2023-01-19T10:58:57.884Z,3678.00
2023-01-19T10:59:57.900Z,3663.00
2023-01-19T11:00:58.036Z,3661.00
2023-01-19T11:01:58.108Z,3663.00
2023-01-19T11:02:58.120Z,3664.00
2023-01-19T11:03:58.099Z,3665.00
2023-01-19T11:04:58.069Z,3666.00
2023-01-19T11:05:58.088Z,3666.00
2023-01-19T11:06:58.135Z,3658.00
2023-01-19T11:08:58.197Z,3649.00
2023-01-19T11:09:58.238Z,3642.00
2023-01-19T11:10:58.253Z,3638.00
2023-01-19T11:11:58.293Z,3660.00
2023-01-19T11:12:58.618Z,3659.00
2023-01-19T11:13:58.344Z,3643.00
2023-01-19T14:27:05.554Z,3719.00
2023-01-19T14:28:05.628Z,3719.00
2023-01-19T14:29:05.678Z,3709.00
2023-01-19T14:30:05.716Z,3712.00
2023-01-19T14:31:05.863Z,3712.00
2023-01-19T14:32:05.844Z,3713.00
2023-01-19T14:33:05.883Z,3704.00
2023-01-19T14:34:05.950Z,3704.00
2023-01-19T14:35:06.376Z,3699.00
2023-01-19T14:36:06.071Z,3696.00
2023-01-19T14:37:06.127Z,3690.00
2023-01-19T14:38:06.198Z,3674.00
2023-01-19T14:39:06.246Z,3671.00
2023-01-19T14:50:06.921Z,3646.00
2023-01-19T14:51:06.965Z,3635.00
2023-01-19T14:52:07.032Z,3631.00
2023-01-19T14:53:07.089Z,3627.00
2023-01-19T14:54:07.153Z,3632.00
2023-01-19T14:55:07.507Z,3632.00
2023-01-19T14:56:07.285Z,3624.00
2023-01-19T14:57:07.348Z,3610.00
2023-01-19T14:58:07.396Z,3614.00
2023-01-19T14:59:07.471Z,3619.00
2023-01-19T15:00:07.734Z,3614.00
2023-01-19T15:01:07.886Z,3604.00
2023-01-19T15:03:07.721Z,3597.00
2023-01-19T15:05:08.183Z,3576.00
2023-01-19T15:07:07.844Z,3578.00
2023-01-19T15:08:07.845Z,3573.00
2023-01-19T15:09:07.849Z,3559.00
2023-01-19T15:10:07.889Z,3552.00
2023-01-19T17:55:15.604Z,3112.00
2023-01-19T17:56:15.552Z,3118.00
2023-01-19T17:57:16.559Z,3121.00
2023-01-19T17:58:15.566Z,3125.00
2023-01-19T17:59:15.572Z,3127.00
2023-01-19T18:00:15.616Z,3127.00
2023-01-19T18:01:15.668Z,3127.00
2023-01-19T18:02:15.663Z,3125.00
2023-01-19T18:03:15.586Z,3118.00
2023-01-19T18:04:15.607Z,3111.00
2023-01-19T18:05:15.623Z,3113.00
2023-01-19T18:06:15.684Z,3115.00
2023-01-19T18:07:15.686Z,3110.00
2023-01-19T18:08:15.711Z,3107.00
2023-01-19T18:09:15.751Z,3106.00
2023-01-19T18:10:16.064Z,3103.00
2023-01-19T18:11:15.873Z,3104.00
2023-01-19T18:12:15.956Z,3104.00
2023-01-19T18:19:16.204Z,3093.00
2023-01-19T18:24:16.417Z,3091.00
2023-01-19T18:25:16.429Z,3094.00
2023-01-19T18:26:16.465Z,3089.00
2023-01-19T18:27:16.468Z,3079.00
2023-01-19T18:28:16.496Z,3071.00
2023-01-19T18:29:16.592Z,3069.00
2023-01-19T18:30:16.680Z,3070.00
2023-01-19T18:31:16.793Z,3074.00
2023-01-19T18:32:16.847Z,3065.00
2023-01-19T18:33:16.872Z,3059.00
2023-01-19T18:34:16.864Z,3057.00
2023-01-19T18:35:16.884Z,3062.00
2023-01-19T18:36:16.895Z,3060.00
2023-01-19T18:37:16.916Z,3058.00
2023-01-19T18:38:16.949Z,3058.00
2023-01-19T18:39:17.031Z,3050.00
2023-01-19T18:40:17.149Z,3049.00
2023-01-19T18:41:17.219Z,3046.00
2023-01-19T18:42:17.320Z,3043.00
2023-01-19T18:43:17.409Z,3047.00
2023-01-19T18:44:17.515Z,3049.00
2023-01-19T18:45:17.595Z,3048.00
2023-01-19T18:46:17.714Z,3036.00
2023-01-19T18:47:17.779Z,3032.00
2023-01-19T18:48:18.144Z,3031.00
2023-01-19T18:49:17.970Z,3033.00
2023-01-19T18:50:18.069Z,3030.00
2023-01-19T18:51:18.155Z,3027.00
2023-01-19T18:52:18.276Z,3030.00
2023-01-19T18:53:18.347Z,3027.00
2023-01-19T18:54:18.438Z,3026.00
2023-01-19T18:55:18.539Z,3021.00
2023-01-19T18:56:18.631Z,3013.00
2023-01-19T18:57:18.726Z,3012.00
2023-01-19T18:58:18.825Z,3015.00
2023-01-19T18:59:18.929Z,3009.00
2023-01-19T19:00:19.023Z,3004.00
2023-01-19T19:01:19.096Z,3008.00
2023-01-19T19:02:19.073Z,3003.00
2023-01-19T19:03:19.051Z,2996.00
2023-01-19T19:04:19.039Z,3000.00
2023-01-19T19:05:19.125Z,2999.00
2023-01-19T19:06:19.177Z,2981.00
2023-01-19T19:07:19.174Z,2986.00
2023-01-19T19:08:19.174Z,2987.00
2023-01-19T19:09:19.201Z,2988.00
2023-01-19T19:10:19.196Z,2987.00
2023-01-19T19:11:19.200Z,2976.00
2023-01-19T19:12:19.254Z,2976.00
2023-01-19T19:13:19.286Z,2975.00
2023-01-19T19:14:19.289Z,2972.00
2023-01-19T19:15:19.307Z,2962.00
2023-01-19T19:16:19.436Z,2956.00
2023-01-19T19:17:19.344Z,2956.00
2023-01-19T19:18:19.367Z,2963.00
2023-01-19T19:19:19.445Z,2965.00
2023-01-19T19:20:19.552Z,2961.00
2023-01-19T19:21:19.586Z,2963.00
2023-01-19T19:22:19.627Z,2963.00
2023-01-19T19:23:19.652Z,2960.00
2023-01-19T19:24:19.714Z,2954.00
2023-01-19T19:25:19.742Z,2959.00
2023-01-19T19:26:19.746Z,2958.00
2023-01-19T19:27:19.753Z,2957.00
2023-01-19T19:28:19.857Z,2954.00
2023-01-19T19:29:19.857Z,2945.00
2023-01-19T19:30:19.946Z,2945.00
2023-01-19T19:31:19.940Z,2937.00
2023-01-19T19:32:19.915Z,2935.00
2023-01-19T19:33:19.935Z,2933.00
2023-01-19T19:34:20.895Z,2935.00
2023-01-19T19:35:19.959Z,2917.00
2023-01-19T19:36:20.100Z,2921.00
2023-01-19T20:35:21.403Z,2845.00
2023-01-19T20:36:21.432Z,2830.00
2023-01-19T20:37:21.440Z,2818.00
2023-01-19T20:38:21.433Z,2812.00
2023-01-19T20:39:21.446Z,2812.00
2023-01-19T20:40:21.450Z,2813.00
2023-01-19T20:41:21.451Z,2818.00
2023-01-19T20:42:21.512Z,2816.00
2023-01-19T20:43:21.604Z,2812.00
2023-01-19T20:44:21.705Z,2807.00
2023-01-19T20:45:21.824Z,2808.00
2023-01-19T20:46:21.895Z,2805.00
2023-01-19T20:47:21.880Z,2802.00
2023-01-19T20:48:21.913Z,2793.00
2023-01-19T20:49:21.951Z,2792.00
2023-01-19T20:50:21.972Z,2787.00
2023-01-19T20:51:22.016Z,2789.00
2023-01-19T20:52:22.022Z,2787.00
2023-01-19T20:53:22.071Z,2792.00
2023-01-19T20:54:22.174Z,2793.00
2023-01-19T20:55:22.249Z,2783.00
2023-01-19T20:56:22.354Z,2775.00
2023-01-19T20:57:22.362Z,2771.00
2023-01-19T20:58:22.364Z,2771.00
2023-01-19T20:59:22.369Z,2765.00
2023-01-19T21:00:22.380Z,2764.00
2023-01-19T21:01:22.434Z,2762.00
2023-01-19T21:02:22.448Z,2759.00
2023-01-19T21:03:22.446Z,2755.00
2023-01-19T21:04:22.473Z,2757.00
2023-01-19T21:05:22.483Z,2756.00
2023-01-19T21:06:22.471Z,2757.00
2023-01-19T21:07:22.478Z,2758.00
2023-01-19T21:08:22.519Z,2757.00
2023-01-19T21:09:22.543Z,2757.00
2023-01-19T21:10:22.554Z,2754.00
2023-01-19T21:11:22.573Z,2753.00
2023-01-19T21:12:22.576Z,2752.00
2023-01-19T21:13:22.595Z,2747.00
2023-01-19T21:14:22.665Z,2747.00
2023-01-19T21:15:22.749Z,2743.00
2023-01-19T21:16:22.881Z,2742.00
2023-01-19T21:17:22.942Z,2739.00
2023-01-19T21:18:22.947Z,2738.00
2023-01-19T21:19:22.960Z,2740.00
2023-01-19T21:20:22.958Z,2733.00
2023-01-19T21:21:30.213Z,2736.00
2023-01-19T21:22:23.968Z,2730.00
2023-01-19T21:23:22.951Z,2732.00
2023-01-19T21:24:22.968Z,2733.00
2023-01-19T21:25:22.957Z,2733.00
2023-01-19T21:26:22.976Z,2736.00
2023-01-19T21:27:22.978Z,2732.00
2023-01-19T21:28:22.987Z,2728.00
2023-01-19T21:29:22.978Z,2725.00
2023-01-19T21:30:22.999Z,2728.00
2023-01-19T21:31:23.423Z,2727.00
2023-01-19T21:32:22.977Z,2721.00
2023-01-19T21:33:22.975Z,2712.00
2023-01-19T21:34:22.975Z,2709.00
2023-01-19T21:35:22.983Z,2706.00
2023-01-19T21:36:22.992Z,2701.00
2023-01-19T21:37:22.980Z,2697.00
2023-01-19T21:38:23.002Z,2700.00
2023-01-19T21:39:22.995Z,2697.00
2023-01-19T21:40:22.996Z,2699.00
2023-01-19T21:41:23.043Z,2689.00
2023-01-19T21:42:23.021Z,2686.00
2023-01-19T21:43:23.084Z,2681.00
2023-01-19T21:44:23.190Z,2678.00
2023-01-19T21:45:23.270Z,2676.00
2023-01-19T21:46:23.210Z,2675.00
2023-01-19T21:47:23.213Z,2677.00
2023-01-19T21:48:23.234Z,2674.00
2023-01-19T21:49:23.241Z,2678.00
2023-01-19T21:50:23.320Z,2678.00
2023-01-19T21:51:23.420Z,2672.00
2023-01-19T21:52:23.512Z,2673.00
2023-01-19T21:53:23.613Z,2673.00
2023-01-19T21:54:23.718Z,2672.00
2023-01-19T21:55:23.735Z,2673.00
2023-01-19T21:56:23.761Z,2675.00
2023-01-19T21:57:23.767Z,2674.00
2023-01-19T21:58:23.783Z,2666.00
2023-01-19T21:59:23.813Z,2665.00
2023-01-19T22:00:23.840Z,2663.00
2023-01-19T22:01:24.133Z,2671.00
2023-01-19T22:02:37.701Z,2669.00
2023-01-19T22:03:24.992Z,2664.00
2023-01-19T22:04:23.949Z,2657.00
2023-01-19T22:05:23.984Z,2650.00
2023-01-19T22:06:23.956Z,2654.00
2023-01-19T22:07:23.970Z,2653.00
2023-01-19T22:08:24.001Z,2652.00
2023-01-19T22:09:23.987Z,2649.00
2023-01-19T22:10:24.009Z,2643.00
2023-01-19T22:11:24.011Z,2636.00
2023-01-19T22:12:24.046Z,2635.00
2023-01-19T22:13:24.024Z,2627.00
2023-01-19T22:14:24.032Z,2626.00
2023-01-19T22:15:24.121Z,2629.00
2023-01-19T22:16:24.266Z,2628.00
2023-01-19T22:17:24.311Z,2628.00
2023-01-19T22:48:25.549Z,2572.00
2023-01-19T22:49:25.566Z,2562.00
2023-01-19T22:50:25.573Z,2555.00
2023-01-19T22:51:25.600Z,2549.00
2023-01-19T22:52:25.620Z,2552.00
2023-01-19T22:53:25.648Z,2552.00
2023-01-19T22:54:25.656Z,2552.00
2023-01-19T22:55:25.664Z,2549.00
2023-01-19T22:56:25.684Z,2558.00
2023-01-19T22:57:25.679Z,2549.00
2023-01-19T22:58:25.675Z,2546.00
2023-01-19T22:59:25.756Z,2540.00
2023-01-19T23:00:25.858Z,2537.00
2023-01-19T23:01:26.098Z,2536.00
2023-01-19T23:02:26.078Z,2534.00
2023-01-19T23:03:26.099Z,2533.00
2023-01-19T23:04:26.097Z,2531.00
2023-01-19T23:05:26.120Z,2524.00
2023-01-19T23:06:26.131Z,2533.00
2023-01-19T23:13:26.314Z,2514.00
2023-01-19T23:14:26.316Z,2521.00
2023-01-19T23:15:26.371Z,2517.00
2023-01-19T23:16:26.385Z,2512.00
2023-01-19T23:17:26.497Z,2513.00
2023-01-19T23:18:26.584Z,2507.00
2023-01-19T23:19:26.619Z,2498.00
2023-01-19T23:20:26.647Z,2500.00
2023-01-19T23:21:26.706Z,2502.00
2023-01-19T23:22:26.718Z,2499.00
2023-01-19T23:23:26.733Z,2500.00
2023-01-19T23:24:26.786Z,2504.00
2023-01-19T23:25:26.845Z,2501.00
2023-01-19T23:26:26.938Z,2498.00
2023-01-19T23:27:27.048Z,2501.00
2023-01-19T23:28:27.135Z,2507.00
2023-01-19T23:29:27.237Z,2507.00
2023-01-19T23:30:27.367Z,2504.00
2023-01-19T23:31:27.459Z,2505.00
2023-01-19T23:32:27.393Z,2494.00
2023-01-19T23:33:27.395Z,2491.00
2023-01-19T23:34:27.393Z,2485.00
2023-01-19T23:35:27.426Z,2484.00
2023-01-19T23:36:27.440Z,2479.00
2023-01-19T23:37:27.472Z,2474.00
2023-01-19T23:38:27.478Z,2476.00
2023-01-19T23:39:27.521Z,2476.00
2023-01-19T23:40:27.539Z,2478.00
2023-01-19T23:41:27.570Z,2475.00
2023-01-19T23:42:27.643Z,2473.00
2023-01-19T23:43:27.662Z,2470.00
2023-01-19T23:44:27.685Z,2474.00
2023-01-19T23:45:27.703Z,2472.00
2023-01-19T23:46:27.817Z,2473.00
2023-01-19T23:47:27.809Z,2473.00
2023-01-19T23:48:27.812Z,2471.00
2023-01-19T23:49:27.864Z,2468.00
